sensor_id;sensor_type;location;lat;lon;timestamp;temperature;humidity
7588;DHT22;3835;48.850;8.938;2022-12-24T00:01:28;10.40;99.90
7588;DHT22;3835;48.850;8.938;2022-12-24T00:03:56;10.30;99.90
7588;DHT22;3835;48.850;8.938;2022-12-24T00:06:23;10.30;99.90
7588;DHT22;3835;48.850;8.938;2022-12-24T00:08:50;10.40;99.90
7588;DHT22;3835;48.850;8.938;2022-12-24T00:11:17;10.30;99.90
7588;DHT22;3835;48.850;8.938;2022-12-24T00:13:44;10.40;99.90
7588;DHT22;3835;48.850;8.938;2022-12-24T00:16:11;10.40;99.90
7588;DHT22;3835;48.850;8.938;2022-12-24T00:18:38;10.50;99.90
7588;DHT22;3835;48.850;8.938;2022-12-24T00:21:07;10.50;99.90
7588;DHT22;3835;48.850;8.938;2022-12-24T00:23:34;10.50;99.90
7588;DHT22;3835;48.850;8.938;2022-12-24T00:26:01;10.50;99.90
7588;DHT22;3835;48.850;8.938;2022-12-24T00:28:27;10.60;99.90
7588;DHT22;3835;48.850;8.938;2022-12-24T00:30:54;10.60;99.90
7588;DHT22;3835;48.850;8.938;2022-12-24T00:33:21;10.50;99.90
7588;DHT22;3835;48.850;8.938;2022-12-24T00:35:50;10.70;99.90
7588;DHT22;3835;48.850;8.938;2022-12-24T00:38:18;10.60;99.90
7588;DHT22;3835;48.850;8.938;2022-12-24T00:40:45;10.60;99.90
7588;DHT22;3835;48.850;8.938;2022-12-24T00:43:12;10.50;99.90
7588;DHT22;3835;48.850;8.938;2022-12-24T00:45:38;10.50;99.90
7588;DHT22;3835;48.850;8.938;2022-12-24T00:48:05;10.40;99.90
7588;DHT22;3835;48.850;8.938;2022-12-24T00:50:32;10.30;99.90
7588;DHT22;3835;48.850;8.938;2022-12-24T00:52:59;10.30;99.90
7588;DHT22;3835;48.850;8.938;2022-12-24T00:55:48;10.30;99.90
7588;DHT22;3835;48.850;8.938;2022-12-24T00:58:22;10.30;99.90
7588;DHT22;3835;48.850;8.938;2022-12-24T01:00:49;10.30;99.90
7588;DHT22;3835;48.850;8.938;2022-12-24T01:03:16;10.40;99.90
7588;DHT22;3835;48.850;8.938;2022-12-24T01:05:43;10.40;99.90
7588;DHT22;3835;48.850;8.938;2022-12-24T01:08:09;10.40;99.90
7588;DHT22;3835;48.850;8.938;2022-12-24T01:10:37;10.40;99.90
7588;DHT22;3835;48.850;8.938;2022-12-24T01:13:04;10.30;99.90
7588;DHT22;3835;48.850;8.938;2022-12-24T01:15:31;10.20;99.90
7588;DHT22;3835;48.850;8.938;2022-12-24T01:17:57;10.20;99.90
7588;DHT22;3835;48.850;8.938;2022-12-24T01:20:24;10.10;99.90
7588;DHT22;3835;48.850;8.938;2022-12-24T01:22:55;10.10;99.90
7588;DHT22;3835;48.850;8.938;2022-12-24T01:25:22;10.00;99.90
7588;DHT22;3835;48.850;8.938;2022-12-24T01:27:50;9.90;99.90
7588;DHT22;3835;48.850;8.938;2022-12-24T01:30:17;9.90;99.90
7588;DHT22;3835;48.850;8.938;2022-12-24T01:32:44;9.80;99.90
7588;DHT22;3835;48.850;8.938;2022-12-24T01:35:11;9.70;99.90
7588;DHT22;3835;48.850;8.938;2022-12-24T01:37:37;9.60;99.90
7588;DHT22;3835;48.850;8.938;2022-12-24T01:40:06;9.60;99.90
7588;DHT22;3835;48.850;8.938;2022-12-24T01:43:13;9.50;99.90
7588;DHT22;3835;48.850;8.938;2022-12-24T01:45:53;9.60;99.90
7588;DHT22;3835;48.850;8.938;2022-12-24T01:48:30;9.60;99.90
7588;DHT22;3835;48.850;8.938;2022-12-24T01:51:02;9.60;99.90
7588;DHT22;3835;48.850;8.938;2022-12-24T01:53:31;9.50;99.90
7588;DHT22;3835;48.850;8.938;2022-12-24T01:56:00;9.50;99.90
7588;DHT22;3835;48.850;8.938;2022-12-24T01:58:29;9.50;99.90
7588;DHT22;3835;48.850;8.938;2022-12-24T02:00:56;9.40;99.90
7588;DHT22;3835;48.850;8.938;2022-12-24T02:03:23;9.40;99.90
7588;DHT22;3835;48.850;8.938;2022-12-24T02:05:51;9.40;99.90
7588;DHT22;3835;48.850;8.938;2022-12-24T02:08:19;9.40;99.90
7588;DHT22;3835;48.850;8.938;2022-12-24T02:10:47;9.40;99.90
7588;DHT22;3835;48.850;8.938;2022-12-24T02:13:16;9.40;99.90
7588;DHT22;3835;48.850;8.938;2022-12-24T02:15:55;9.40;99.90
7588;DHT22;3835;48.850;8.938;2022-12-24T02:18:30;9.30;99.90
7588;DHT22;3835;48.850;8.938;2022-12-24T02:21:40;9.30;99.90
7588;DHT22;3835;48.850;8.938;2022-12-24T02:24:47;9.20;99.90
7588;DHT22;3835;48.850;8.938;2022-12-24T02:27:44;9.20;99.90
7588;DHT22;3835;48.850;8.938;2022-12-24T02:30:18;9.20;99.90
7588;DHT22;3835;48.850;8.938;2022-12-24T02:32:55;9.20;99.90
7588;DHT22;3835;48.850;8.938;2022-12-24T02:35:30;9.10;99.90
7588;DHT22;3835;48.850;8.938;2022-12-24T02:38:03;9.00;99.90
7588;DHT22;3835;48.850;8.938;2022-12-24T02:40:35;8.90;99.90
7588;DHT22;3835;48.850;8.938;2022-12-24T02:43:08;9.00;99.90
7588;DHT22;3835;48.850;8.938;2022-12-24T02:45:39;9.00;99.90
7588;DHT22;3835;48.850;8.938;2022-12-24T02:48:08;9.00;99.90
7588;DHT22;3835;48.850;8.938;2022-12-24T02:50:36;9.00;99.90
7588;DHT22;3835;48.850;8.938;2022-12-24T02:53:04;9.00;99.90
7588;DHT22;3835;48.850;8.938;2022-12-24T02:55:35;9.10;99.90
7588;DHT22;3835;48.850;8.938;2022-12-24T02:58:16;9.20;99.90
7588;DHT22;3835;48.850;8.938;2022-12-24T03:00:52;9.20;99.90
7588;DHT22;3835;48.850;8.938;2022-12-24T03:03:35;9.20;99.90
7588;DHT22;3835;48.850;8.938;2022-12-24T03:06:08;9.10;99.90
7588;DHT22;3835;48.850;8.938;2022-12-24T03:08:44;9.00;99.90
7588;DHT22;3835;48.850;8.938;2022-12-24T03:11:15;9.00;99.90
7588;DHT22;3835;48.850;8.938;2022-12-24T03:13:43;9.00;99.90
7588;DHT22;3835;48.850;8.938;2022-12-24T03:16:13;8.90;99.90
7588;DHT22;3835;48.850;8.938;2022-12-24T03:18:43;8.90;99.90
7588;DHT22;3835;48.850;8.938;2022-12-24T03:21:14;8.90;99.90
7588;DHT22;3835;48.850;8.938;2022-12-24T03:23:42;8.90;99.90
7588;DHT22;3835;48.850;8.938;2022-12-24T03:26:10;8.90;99.90
7588;DHT22;3835;48.850;8.938;2022-12-24T03:28:39;8.80;99.90
7588;DHT22;3835;48.850;8.938;2022-12-24T03:31:07;8.80;99.90
7588;DHT22;3835;48.850;8.938;2022-12-24T03:33:36;8.80;99.90
7588;DHT22;3835;48.850;8.938;2022-12-24T03:36:03;8.80;99.90
7588;DHT22;3835;48.850;8.938;2022-12-24T03:38:30;8.90;99.90
7588;DHT22;3835;48.850;8.938;2022-12-24T03:40:57;8.90;99.90
7588;DHT22;3835;48.850;8.938;2022-12-24T03:43:24;8.90;99.90
7588;DHT22;3835;48.850;8.938;2022-12-24T03:45:51;8.90;99.90
7588;DHT22;3835;48.850;8.938;2022-12-24T03:48:18;9.00;99.90
7588;DHT22;3835;48.850;8.938;2022-12-24T03:50:46;9.00;99.90
7588;DHT22;3835;48.850;8.938;2022-12-24T03:53:13;9.00;99.90
7588;DHT22;3835;48.850;8.938;2022-12-24T03:55:39;9.00;99.90
7588;DHT22;3835;48.850;8.938;2022-12-24T03:58:06;9.10;99.90
7588;DHT22;3835;48.850;8.938;2022-12-24T04:00:33;9.00;99.90
7588;DHT22;3835;48.850;8.938;2022-12-24T04:03:00;9.10;99.90
7588;DHT22;3835;48.850;8.938;2022-12-24T04:05:26;9.10;99.90
7588;DHT22;3835;48.850;8.938;2022-12-24T04:07:54;9.10;99.90
7588;DHT22;3835;48.850;8.938;2022-12-24T04:10:21;9.00;99.90
7588;DHT22;3835;48.850;8.938;2022-12-24T04:12:48;9.00;99.90
7588;DHT22;3835;48.850;8.938;2022-12-24T04:15:15;9.00;99.90
7588;DHT22;3835;48.850;8.938;2022-12-24T04:17:41;9.00;99.90
7588;DHT22;3835;48.850;8.938;2022-12-24T04:20:09;9.00;99.90
7588;DHT22;3835;48.850;8.938;2022-12-24T04:22:36;9.00;99.90
7588;DHT22;3835;48.850;8.938;2022-12-24T04:25:05;9.00;99.90
7588;DHT22;3835;48.850;8.938;2022-12-24T04:27:32;8.90;99.90
7588;DHT22;3835;48.850;8.938;2022-12-24T04:29:59;8.90;99.90
7588;DHT22;3835;48.850;8.938;2022-12-24T04:32:26;8.90;99.90
7588;DHT22;3835;48.850;8.938;2022-12-24T04:34:53;8.90;99.90
7588;DHT22;3835;48.850;8.938;2022-12-24T04:37:19;8.90;99.90
7588;DHT22;3835;48.850;8.938;2022-12-24T04:39:46;8.90;99.90
7588;DHT22;3835;48.850;8.938;2022-12-24T04:42:14;8.90;99.90
7588;DHT22;3835;48.850;8.938;2022-12-24T04:44:41;8.80;99.90
7588;DHT22;3835;48.850;8.938;2022-12-24T04:47:08;8.80;99.90
7588;DHT22;3835;48.850;8.938;2022-12-24T04:49:35;8.80;99.90
7588;DHT22;3835;48.850;8.938;2022-12-24T04:52:02;8.70;99.90
7588;DHT22;3835;48.850;8.938;2022-12-24T04:54:28;8.70;99.90
7588;DHT22;3835;48.850;8.938;2022-12-24T04:56:55;8.70;99.90
7588;DHT22;3835;48.850;8.938;2022-12-24T04:59:23;8.70;99.90
7588;DHT22;3835;48.850;8.938;2022-12-24T05:01:50;8.60;99.90
7588;DHT22;3835;48.850;8.938;2022-12-24T05:04:17;8.60;99.90
7588;DHT22;3835;48.850;8.938;2022-12-24T05:06:43;8.50;99.90
7588;DHT22;3835;48.850;8.938;2022-12-24T05:09:10;8.50;99.90
7588;DHT22;3835;48.850;8.938;2022-12-24T05:11:37;8.50;99.90
7588;DHT22;3835;48.850;8.938;2022-12-24T05:14:04;8.40;99.90
7588;DHT22;3835;48.850;8.938;2022-12-24T05:16:32;8.30;99.90
7588;DHT22;3835;48.850;8.938;2022-12-24T05:18:59;8.30;99.90
7588;DHT22;3835;48.850;8.938;2022-12-24T05:21:26;8.30;99.90
7588;DHT22;3835;48.850;8.938;2022-12-24T05:23:52;8.30;99.90
7588;DHT22;3835;48.850;8.938;2022-12-24T05:26:39;8.20;99.90
7588;DHT22;3835;48.850;8.938;2022-12-24T05:29:07;8.30;99.90
7588;DHT22;3835;48.850;8.938;2022-12-24T05:31:37;8.20;99.90
7588;DHT22;3835;48.850;8.938;2022-12-24T05:34:04;8.20;99.90
7588;DHT22;3835;48.850;8.938;2022-12-24T05:36:31;8.10;99.90
7588;DHT22;3835;48.850;8.938;2022-12-24T05:38:58;8.20;99.90
7588;DHT22;3835;48.850;8.938;2022-12-24T05:41:26;8.10;99.90
7588;DHT22;3835;48.850;8.938;2022-12-24T05:43:53;8.10;99.90
7588;DHT22;3835;48.850;8.938;2022-12-24T05:46:21;8.20;99.90
7588;DHT22;3835;48.850;8.938;2022-12-24T05:48:50;8.20;99.90
7588;DHT22;3835;48.850;8.938;2022-12-24T05:51:21;8.20;99.90
7588;DHT22;3835;48.850;8.938;2022-12-24T05:53:49;8.20;99.90
7588;DHT22;3835;48.850;8.938;2022-12-24T05:56:18;8.10;99.90
7588;DHT22;3835;48.850;8.938;2022-12-24T05:58:45;8.10;99.90
7588;DHT22;3835;48.850;8.938;2022-12-24T06:01:13;8.00;99.90
7588;DHT22;3835;48.850;8.938;2022-12-24T06:03:40;8.00;99.90
7588;DHT22;3835;48.850;8.938;2022-12-24T06:06:10;8.00;99.90
7588;DHT22;3835;48.850;8.938;2022-12-24T06:08:38;8.00;99.90
7588;DHT22;3835;48.850;8.938;2022-12-24T06:11:07;8.00;99.90
7588;DHT22;3835;48.850;8.938;2022-12-24T06:13:35;8.00;99.90
7588;DHT22;3835;48.850;8.938;2022-12-24T06:16:04;7.90;99.90
7588;DHT22;3835;48.850;8.938;2022-12-24T06:18:32;8.00;99.90
7588;DHT22;3835;48.850;8.938;2022-12-24T06:21:00;8.00;99.90
7588;DHT22;3835;48.850;8.938;2022-12-24T06:23:30;8.00;99.90
7588;DHT22;3835;48.850;8.938;2022-12-24T06:25:58;8.00;99.90
7588;DHT22;3835;48.850;8.938;2022-12-24T06:28:26;8.10;99.90
7588;DHT22;3835;48.850;8.938;2022-12-24T06:30:53;8.10;99.90
7588;DHT22;3835;48.850;8.938;2022-12-24T06:33:20;8.10;99.90
7588;DHT22;3835;48.850;8.938;2022-12-24T06:35:47;8.10;99.90
7588;DHT22;3835;48.850;8.938;2022-12-24T06:38:14;8.10;99.90
7588;DHT22;3835;48.850;8.938;2022-12-24T06:40:44;8.00;99.90
7588;DHT22;3835;48.850;8.938;2022-12-24T06:43:12;8.00;99.90
7588;DHT22;3835;48.850;8.938;2022-12-24T06:45:42;8.00;99.90
7588;DHT22;3835;48.850;8.938;2022-12-24T06:48:09;8.00;99.90
7588;DHT22;3835;48.850;8.938;2022-12-24T06:50:36;8.00;99.90
7588;DHT22;3835;48.850;8.938;2022-12-24T06:53:03;8.00;99.90
7588;DHT22;3835;48.850;8.938;2022-12-24T06:55:29;7.90;99.90
7588;DHT22;3835;48.850;8.938;2022-12-24T06:57:57;7.90;99.90
7588;DHT22;3835;48.850;8.938;2022-12-24T07:00:24;7.90;99.90
7588;DHT22;3835;48.850;8.938;2022-12-24T07:02:51;7.90;99.90
7588;DHT22;3835;48.850;8.938;2022-12-24T07:05:18;7.90;99.90
7588;DHT22;3835;48.850;8.938;2022-12-24T07:07:45;7.90;99.90
7588;DHT22;3835;48.850;8.938;2022-12-24T07:10:13;7.90;99.90
7588;DHT22;3835;48.850;8.938;2022-12-24T07:12:41;7.90;99.90
7588;DHT22;3835;48.850;8.938;2022-12-24T07:15:10;7.90;99.90
7588;DHT22;3835;48.850;8.938;2022-12-24T07:17:37;7.90;99.90
7588;DHT22;3835;48.850;8.938;2022-12-24T07:20:05;8.00;99.90
7588;DHT22;3835;48.850;8.938;2022-12-24T07:22:32;8.00;99.90
7588;DHT22;3835;48.850;8.938;2022-12-24T07:24:59;8.00;99.90
7588;DHT22;3835;48.850;8.938;2022-12-24T07:27:26;8.10;99.90
7588;DHT22;3835;48.850;8.938;2022-12-24T07:29:52;8.20;99.90
7588;DHT22;3835;48.850;8.938;2022-12-24T07:32:21;8.20;99.90
7588;DHT22;3835;48.850;8.938;2022-12-24T07:34:47;8.30;99.90
7588;DHT22;3835;48.850;8.938;2022-12-24T07:37:14;8.30;99.90
7588;DHT22;3835;48.850;8.938;2022-12-24T07:39:41;8.40;99.90
7588;DHT22;3835;48.850;8.938;2022-12-24T07:42:08;8.40;99.90
7588;DHT22;3835;48.850;8.938;2022-12-24T07:44:34;8.40;99.90
7588;DHT22;3835;48.850;8.938;2022-12-24T07:47:01;8.40;99.90
7588;DHT22;3835;48.850;8.938;2022-12-24T07:49:30;8.30;99.90
7588;DHT22;3835;48.850;8.938;2022-12-24T07:51:56;8.30;99.90
7588;DHT22;3835;48.850;8.938;2022-12-24T07:54:23;8.30;99.90
7588;DHT22;3835;48.850;8.938;2022-12-24T07:56:50;8.30;99.90
7588;DHT22;3835;48.850;8.938;2022-12-24T07:59:17;8.30;99.90
7588;DHT22;3835;48.850;8.938;2022-12-24T08:01:44;8.30;99.90
7588;DHT22;3835;48.850;8.938;2022-12-24T08:04:10;8.30;99.90
7588;DHT22;3835;48.850;8.938;2022-12-24T08:06:39;8.30;99.90
7588;DHT22;3835;48.850;8.938;2022-12-24T08:09:05;8.30;99.90
7588;DHT22;3835;48.850;8.938;2022-12-24T08:11:32;8.30;99.90
7588;DHT22;3835;48.850;8.938;2022-12-24T08:13:59;8.30;99.90
7588;DHT22;3835;48.850;8.938;2022-12-24T08:16:26;8.30;99.90
7588;DHT22;3835;48.850;8.938;2022-12-24T08:18:53;8.30;99.90
7588;DHT22;3835;48.850;8.938;2022-12-24T08:21:20;8.20;99.90
7588;DHT22;3835;48.850;8.938;2022-12-24T08:23:48;8.30;99.90
7588;DHT22;3835;48.850;8.938;2022-12-24T08:26:15;8.30;99.90
7588;DHT22;3835;48.850;8.938;2022-12-24T08:28:41;8.40;99.90
7588;DHT22;3835;48.850;8.938;2022-12-24T08:31:08;8.50;99.90
7588;DHT22;3835;48.850;8.938;2022-12-24T08:33:35;8.50;99.90
7588;DHT22;3835;48.850;8.938;2022-12-24T08:36:02;8.60;99.90
7588;DHT22;3835;48.850;8.938;2022-12-24T08:38:29;8.60;99.90
7588;DHT22;3835;48.850;8.938;2022-12-24T08:40:57;8.60;99.90
7588;DHT22;3835;48.850;8.938;2022-12-24T08:43:24;8.60;99.90
7588;DHT22;3835;48.850;8.938;2022-12-24T08:45:51;8.50;99.90
7588;DHT22;3835;48.850;8.938;2022-12-24T08:48:18;8.50;99.90
7588;DHT22;3835;48.850;8.938;2022-12-24T08:50:45;8.50;99.90
7588;DHT22;3835;48.850;8.938;2022-12-24T08:53:12;8.40;99.90
7588;DHT22;3835;48.850;8.938;2022-12-24T08:55:39;8.40;99.90
7588;DHT22;3835;48.850;8.938;2022-12-24T08:58:07;8.50;99.90
7588;DHT22;3835;48.850;8.938;2022-12-24T09:00:34;8.40;99.90
7588;DHT22;3835;48.850;8.938;2022-12-24T09:03:00;8.40;99.90
7588;DHT22;3835;48.850;8.938;2022-12-24T09:05:27;8.50;99.90
7588;DHT22;3835;48.850;8.938;2022-12-24T09:07:54;8.50;99.90
7588;DHT22;3835;48.850;8.938;2022-12-24T09:10:21;8.70;99.90
7588;DHT22;3835;48.850;8.938;2022-12-24T09:12:48;8.80;99.90
7588;DHT22;3835;48.850;8.938;2022-12-24T09:15:17;8.90;99.90
7588;DHT22;3835;48.850;8.938;2022-12-24T09:17:43;8.90;99.90
7588;DHT22;3835;48.850;8.938;2022-12-24T09:20:10;9.00;99.90
7588;DHT22;3835;48.850;8.938;2022-12-24T09:22:38;9.10;99.90
7588;DHT22;3835;48.850;8.938;2022-12-24T09:25:06;9.10;99.90
7588;DHT22;3835;48.850;8.938;2022-12-24T09:27:35;9.20;99.90
7588;DHT22;3835;48.850;8.938;2022-12-24T09:30:02;9.40;99.90
7588;DHT22;3835;48.850;8.938;2022-12-24T09:32:30;9.60;99.90
7588;DHT22;3835;48.850;8.938;2022-12-24T09:34:57;9.90;99.90
7588;DHT22;3835;48.850;8.938;2022-12-24T09:37:24;10.10;99.90
7588;DHT22;3835;48.850;8.938;2022-12-24T09:39:51;10.40;99.90
7588;DHT22;3835;48.850;8.938;2022-12-24T09:42:25;10.60;99.90
7588;DHT22;3835;48.850;8.938;2022-12-24T09:44:57;10.90;99.90
7588;DHT22;3835;48.850;8.938;2022-12-24T09:47:28;11.00;99.90
7588;DHT22;3835;48.850;8.938;2022-12-24T09:49:58;11.00;99.90
7588;DHT22;3835;48.850;8.938;2022-12-24T09:52:31;11.10;99.90
7588;DHT22;3835;48.850;8.938;2022-12-24T09:55:04;11.20;99.90
7588;DHT22;3835;48.850;8.938;2022-12-24T09:57:35;11.20;99.90
7588;DHT22;3835;48.850;8.938;2022-12-24T10:00:04;11.20;99.90
7588;DHT22;3835;48.850;8.938;2022-12-24T10:02:33;11.20;99.90
7588;DHT22;3835;48.850;8.938;2022-12-24T10:05:01;11.20;99.90
7588;DHT22;3835;48.850;8.938;2022-12-24T10:07:35;11.20;99.90
7588;DHT22;3835;48.850;8.938;2022-12-24T10:10:15;11.30;99.90
7588;DHT22;3835;48.850;8.938;2022-12-24T10:12:50;11.40;99.90
7588;DHT22;3835;48.850;8.938;2022-12-24T10:15:25;11.60;99.90
7588;DHT22;3835;48.850;8.938;2022-12-24T10:18:07;11.80;99.90
7588;DHT22;3835;48.850;8.938;2022-12-24T10:20:44;11.80;99.90
7588;DHT22;3835;48.850;8.938;2022-12-24T10:23:18;11.60;99.90
7588;DHT22;3835;48.850;8.938;2022-12-24T10:25:51;11.60;99.90
7588;DHT22;3835;48.850;8.938;2022-12-24T10:28:22;11.30;99.90
7588;DHT22;3835;48.850;8.938;2022-12-24T10:30:58;11.00;99.90
7588;DHT22;3835;48.850;8.938;2022-12-24T10:33:31;10.90;99.90
7588;DHT22;3835;48.850;8.938;2022-12-24T10:36:00;10.70;99.90
7588;DHT22;3835;48.850;8.938;2022-12-24T10:38:26;10.60;99.90
7588;DHT22;3835;48.850;8.938;2022-12-24T10:40:55;10.50;99.90
7588;DHT22;3835;48.850;8.938;2022-12-24T10:43:26;10.50;99.90
7588;DHT22;3835;48.850;8.938;2022-12-24T10:45:55;10.50;99.90
7588;DHT22;3835;48.850;8.938;2022-12-24T10:48:26;10.50;99.90
7588;DHT22;3835;48.850;8.938;2022-12-24T10:51:00;10.50;99.90
7588;DHT22;3835;48.850;8.938;2022-12-24T10:53:37;10.40;99.90
7588;DHT22;3835;48.850;8.938;2022-12-24T10:56:08;10.30;99.90
7588;DHT22;3835;48.850;8.938;2022-12-24T10:58:36;10.30;99.90
7588;DHT22;3835;48.850;8.938;2022-12-24T11:01:08;10.30;99.90
7588;DHT22;3835;48.850;8.938;2022-12-24T11:03:35;10.50;99.90
7588;DHT22;3835;48.850;8.938;2022-12-24T11:06:10;10.50;99.90
7588;DHT22;3835;48.850;8.938;2022-12-24T11:08:40;10.50;99.90
7588;DHT22;3835;48.850;8.938;2022-12-24T11:11:11;10.60;99.90
7588;DHT22;3835;48.850;8.938;2022-12-24T11:13:39;10.60;99.90
7588;DHT22;3835;48.850;8.938;2022-12-24T11:16:16;10.60;99.90
7588;DHT22;3835;48.850;8.938;2022-12-24T11:18:47;10.60;99.90
7588;DHT22;3835;48.850;8.938;2022-12-24T11:21:19;10.60;99.90
7588;DHT22;3835;48.850;8.938;2022-12-24T11:23:51;10.60;99.90
7588;DHT22;3835;48.850;8.938;2022-12-24T11:26:21;10.60;99.90
7588;DHT22;3835;48.850;8.938;2022-12-24T11:29:28;10.60;99.90
7588;DHT22;3835;48.850;8.938;2022-12-24T11:32:17;10.50;99.90
7588;DHT22;3835;48.850;8.938;2022-12-24T11:34:45;10.40;99.90
7588;DHT22;3835;48.850;8.938;2022-12-24T11:37:16;10.40;99.90
7588;DHT22;3835;48.850;8.938;2022-12-24T11:39:47;10.30;99.90
7588;DHT22;3835;48.850;8.938;2022-12-24T11:42:31;10.40;99.90
7588;DHT22;3835;48.850;8.938;2022-12-24T11:45:01;10.30;99.90
7588;DHT22;3835;48.850;8.938;2022-12-24T11:47:33;10.40;99.90
7588;DHT22;3835;48.850;8.938;2022-12-24T11:50:19;10.40;99.90
7588;DHT22;3835;48.850;8.938;2022-12-24T11:52:57;10.50;99.90
7588;DHT22;3835;48.850;8.938;2022-12-24T11:55:44;10.70;99.90
7588;DHT22;3835;48.850;8.938;2022-12-24T11:58:19;10.80;99.90
7588;DHT22;3835;48.850;8.938;2022-12-24T12:00:50;10.80;99.90
7588;DHT22;3835;48.850;8.938;2022-12-24T12:03:27;10.80;99.90
7588;DHT22;3835;48.850;8.938;2022-12-24T12:05:57;10.70;99.90
7588;DHT22;3835;48.850;8.938;2022-12-24T12:08:28;10.70;99.90
7588;DHT22;3835;48.850;8.938;2022-12-24T12:14:44;10.70;99.90
7588;DHT22;3835;48.850;8.938;2022-12-24T12:17:31;10.60;99.90
7588;DHT22;3835;48.850;8.938;2022-12-24T12:20:04;10.80;99.90
7588;DHT22;3835;48.850;8.938;2022-12-24T12:22:44;10.90;99.90
7588;DHT22;3835;48.850;8.938;2022-12-24T12:25:19;11.00;99.90
7588;DHT22;3835;48.850;8.938;2022-12-24T12:27:49;11.00;99.90
7588;DHT22;3835;48.850;8.938;2022-12-24T12:30:20;10.90;99.90
7588;DHT22;3835;48.850;8.938;2022-12-24T12:32:55;10.90;99.90
7588;DHT22;3835;48.850;8.938;2022-12-24T12:35:24;10.80;99.90
7588;DHT22;3835;48.850;8.938;2022-12-24T12:37:56;10.90;99.90
7588;DHT22;3835;48.850;8.938;2022-12-24T12:40:51;11.00;99.90
7588;DHT22;3835;48.850;8.938;2022-12-24T12:43:55;11.20;99.90
7588;DHT22;3835;48.850;8.938;2022-12-24T12:46:55;11.50;99.90
7588;DHT22;3835;48.850;8.938;2022-12-24T12:49:32;11.60;99.90
7588;DHT22;3835;48.850;8.938;2022-12-24T12:52:09;11.60;99.90
7588;DHT22;3835;48.850;8.938;2022-12-24T12:54:47;11.70;99.90
7588;DHT22;3835;48.850;8.938;2022-12-24T12:57:18;11.60;99.90
7588;DHT22;3835;48.850;8.938;2022-12-24T12:59:51;11.60;99.90
7588;DHT22;3835;48.850;8.938;2022-12-24T13:02:44;11.50;99.90
7588;DHT22;3835;48.850;8.938;2022-12-24T13:05:35;11.40;99.90
7588;DHT22;3835;48.850;8.938;2022-12-24T13:11:21;11.20;99.90
7588;DHT22;3835;48.850;8.938;2022-12-24T13:14:08;11.20;99.90
7588;DHT22;3835;48.850;8.938;2022-12-24T13:16:55;11.20;99.90
7588;DHT22;3835;48.850;8.938;2022-12-24T13:19:40;11.30;99.90
7588;DHT22;3835;48.850;8.938;2022-12-24T13:22:14;11.20;99.90
7588;DHT22;3835;48.850;8.938;2022-12-24T13:24:49;11.10;99.90
7588;DHT22;3835;48.850;8.938;2022-12-24T13:27:19;11.00;99.90
7588;DHT22;3835;48.850;8.938;2022-12-24T13:29:55;11.00;99.90
7588;DHT22;3835;48.850;8.938;2022-12-24T13:32:52;11.00;99.90
7588;DHT22;3835;48.850;8.938;2022-12-24T13:35:36;10.80;99.90
7588;DHT22;3835;48.850;8.938;2022-12-24T13:38:31;10.80;99.90
7588;DHT22;3835;48.850;8.938;2022-12-24T13:41:36;10.80;99.90
7588;DHT22;3835;48.850;8.938;2022-12-24T13:44:23;10.70;99.90
7588;DHT22;3835;48.850;8.938;2022-12-24T13:47:03;10.60;99.90
7588;DHT22;3835;48.850;8.938;2022-12-24T13:49:44;10.50;99.90
7588;DHT22;3835;48.850;8.938;2022-12-24T13:52:22;10.40;99.90
7588;DHT22;3835;48.850;8.938;2022-12-24T13:55:11;10.40;99.90
7588;DHT22;3835;48.850;8.938;2022-12-24T13:57:42;10.40;99.90
7588;DHT22;3835;48.850;8.938;2022-12-24T14:00:38;10.40;99.90
7588;DHT22;3835;48.850;8.938;2022-12-24T14:03:17;10.50;99.90
7588;DHT22;3835;48.850;8.938;2022-12-24T14:05:48;10.50;99.90
7588;DHT22;3835;48.850;8.938;2022-12-24T14:08:28;10.40;99.90
7588;DHT22;3835;48.850;8.938;2022-12-24T14:11:01;10.40;99.90
7588;DHT22;3835;48.850;8.938;2022-12-24T14:13:52;10.50;99.90
7588;DHT22;3835;48.850;8.938;2022-12-24T14:16:19;10.50;99.90
7588;DHT22;3835;48.850;8.938;2022-12-24T14:18:57;10.50;99.90
7588;DHT22;3835;48.850;8.938;2022-12-24T14:21:27;10.50;99.90
7588;DHT22;3835;48.850;8.938;2022-12-24T14:23:59;10.50;99.90
7588;DHT22;3835;48.850;8.938;2022-12-24T14:26:32;10.50;99.90
7588;DHT22;3835;48.850;8.938;2022-12-24T14:29:04;10.40;99.90
7588;DHT22;3835;48.850;8.938;2022-12-24T14:31:32;10.50;99.90
7588;DHT22;3835;48.850;8.938;2022-12-24T14:34:11;10.50;99.90
7588;DHT22;3835;48.850;8.938;2022-12-24T14:36:42;10.50;99.90
7588;DHT22;3835;48.850;8.938;2022-12-24T14:46:23;10.40;99.90
7588;DHT22;3835;48.850;8.938;2022-12-24T14:48:56;10.30;99.90
7588;DHT22;3835;48.850;8.938;2022-12-24T14:51:29;10.20;99.90
7588;DHT22;3835;48.850;8.938;2022-12-24T15:00:25;10.00;99.90
7588;DHT22;3835;48.850;8.938;2022-12-24T15:02:53;9.90;99.90
7588;DHT22;3835;48.850;8.938;2022-12-24T15:05:24;9.80;99.90
7588;DHT22;3835;48.850;8.938;2022-12-24T15:07:55;9.80;99.90
7588;DHT22;3835;48.850;8.938;2022-12-24T15:10:27;9.80;99.90
7588;DHT22;3835;48.850;8.938;2022-12-24T15:12:57;9.80;99.90
7588;DHT22;3835;48.850;8.938;2022-12-24T15:15:24;9.80;99.90
7588;DHT22;3835;48.850;8.938;2022-12-24T15:17:52;9.70;99.90
7588;DHT22;3835;48.850;8.938;2022-12-24T15:20:22;9.60;99.90
7588;DHT22;3835;48.850;8.938;2022-12-24T15:22:52;9.70;99.90
7588;DHT22;3835;48.850;8.938;2022-12-24T15:25:22;9.60;99.90
7588;DHT22;3835;48.850;8.938;2022-12-24T15:27:50;9.50;99.90
7588;DHT22;3835;48.850;8.938;2022-12-24T15:30:19;9.50;99.90
7588;DHT22;3835;48.850;8.938;2022-12-24T15:32:48;9.50;99.90
7588;DHT22;3835;48.850;8.938;2022-12-24T15:35:44;9.50;99.90
7588;DHT22;3835;48.850;8.938;2022-12-24T15:38:29;9.40;99.90
7588;DHT22;3835;48.850;8.938;2022-12-24T15:40:57;9.40;99.90
7588;DHT22;3835;48.850;8.938;2022-12-24T15:43:24;9.40;99.90
7588;DHT22;3835;48.850;8.938;2022-12-24T15:45:52;9.30;99.90
7588;DHT22;3835;48.850;8.938;2022-12-24T15:48:21;9.20;99.90
7588;DHT22;3835;48.850;8.938;2022-12-24T15:51:19;12.70;99.90
7588;DHT22;3835;48.850;8.938;2022-12-24T15:54:18;13.10;99.90
7588;DHT22;3835;48.850;8.938;2022-12-24T15:56:46;12.90;99.90
7588;DHT22;3835;48.850;8.938;2022-12-24T15:59:28;11.10;99.90
7588;DHT22;3835;48.850;8.938;2022-12-24T16:02:16;10.20;99.90
7588;DHT22;3835;48.850;8.938;2022-12-24T16:04:43;9.90;99.90
7588;DHT22;3835;48.850;8.938;2022-12-24T16:07:23;9.60;99.90
7588;DHT22;3835;48.850;8.938;2022-12-24T16:09:50;9.30;99.90
7588;DHT22;3835;48.850;8.938;2022-12-24T16:12:19;9.10;99.90
7588;DHT22;3835;48.850;8.938;2022-12-24T16:14:51;9.00;99.90
7588;DHT22;3835;48.850;8.938;2022-12-24T16:17:21;8.90;99.90
7588;DHT22;3835;48.850;8.938;2022-12-24T16:19:50;8.80;99.90
7588;DHT22;3835;48.850;8.938;2022-12-24T16:22:20;8.70;99.90
7588;DHT22;3835;48.850;8.938;2022-12-24T16:25:13;8.70;99.90
7588;DHT22;3835;48.850;8.938;2022-12-24T16:27:41;8.70;99.90
7588;DHT22;3835;48.850;8.938;2022-12-24T16:30:09;8.70;99.90
7588;DHT22;3835;48.850;8.938;2022-12-24T16:32:38;8.70;99.90
7588;DHT22;3835;48.850;8.938;2022-12-24T16:35:11;8.70;99.90
7588;DHT22;3835;48.850;8.938;2022-12-24T16:37:44;8.60;99.90
7588;DHT22;3835;48.850;8.938;2022-12-24T16:40:13;8.60;99.90
7588;DHT22;3835;48.850;8.938;2022-12-24T16:42:40;8.60;99.90
7588;DHT22;3835;48.850;8.938;2022-12-24T16:45:24;8.50;99.90
7588;DHT22;3835;48.850;8.938;2022-12-24T16:47:51;8.50;99.90
7588;DHT22;3835;48.850;8.938;2022-12-24T16:50:18;8.50;99.90
7588;DHT22;3835;48.850;8.938;2022-12-24T16:52:46;8.50;99.90
7588;DHT22;3835;48.850;8.938;2022-12-24T16:55:13;8.50;99.90
7588;DHT22;3835;48.850;8.938;2022-12-24T16:57:41;8.50;99.90
7588;DHT22;3835;48.850;8.938;2022-12-24T17:00:14;8.50;99.90